Time;durP1;ratioP1;P1;durP2;ratioP2;P2;SDS_P1;SDS_P2;PMS_P1;PMS_P2;Temp;Humidity;BMP_temperature;BMP_pressure;BME280_temperature;BME280_humidity;BME280_pressure;Samples;Min_cycle;Max_cycle;Signal;HPM_P1;HPM_P2
2023/03/28 00:00:13;;;;;;;15.38;3.33;;;;;;;2.35;81.63;102128.31;5052264;28;20064;-57
2023/03/28 00:02:41;;;;;;;17.17;3.78;;;;;;;2.17;81.85;102134.34;5043315;28;20041;-59
2023/03/28 00:05:08;;;;;;;16.15;3.67;;;;;;;2.05;81.96;102128.69;5060524;28;20059;-58
2023/03/28 00:07:35;;;;;;;18.25;4.95;;;;;;;1.96;82.39;102112.53;5066200;28;20481;-57
2023/03/28 00:10:02;;;;;;;18.75;5.78;;;;;;;2.09;82.26;102135.53;5049620;28;20049;-57
2023/03/28 00:12:29;;;;;;;23.80;5.82;;;;;;;2.13;82.54;102141.47;5050172;28;20052;-57
2023/03/28 00:14:56;;;;;;;16.98;5.88;;;;;;;2.10;83.03;102139.00;5049137;28;20049;-57
2023/03/28 00:17:23;;;;;;;20.75;6.28;;;;;;;2.07;83.19;102136.50;5052208;28;20098;-57
2023/03/28 00:19:52;;;;;;;26.35;6.40;;;;;;;2.17;83.32;102136.97;5045192;28;20041;-58
2023/03/28 00:22:20;;;;;;;30.75;6.28;;;;;;;2.22;82.62;102142.84;5051632;28;20071;-57
2023/03/28 00:24:47;;;;;;;19.65;5.65;;;;;;;2.24;82.18;102141.88;5047576;28;20398;-57
2023/03/28 00:27:14;;;;;;;17.23;5.45;;;;;;;2.28;81.87;102139.97;5052398;28;20047;-57
2023/03/28 00:29:41;;;;;;;22.63;5.50;;;;;;;2.29;81.85;102142.53;5047196;28;20040;-57
2023/03/28 00:32:09;;;;;;;17.95;5.47;;;;;;;2.23;81.33;102141.94;5053076;28;20045;-57
2023/03/28 00:34:35;;;;;;;18.02;5.28;;;;;;;2.32;81.79;102153.78;5043971;28;20052;-57
2023/03/28 00:37:02;;;;;;;29.10;5.43;;;;;;;2.22;81.63;102151.56;5051881;28;20482;-57
2023/03/28 00:39:30;;;;;;;18.85;5.63;;;;;;;2.07;82.21;102145.22;5050149;28;20403;-58
2023/03/28 00:42:00;;;;;;;17.42;4.93;;;;;;;2.27;82.00;102153.97;5050059;28;20039;-57
2023/03/28 00:44:55;;;;;;;13.82;4.97;;;;;;;2.14;82.69;102158.88;5052258;28;20132;-57
2023/03/28 00:50:33;;;;;;;14.90;5.20;;;;;;;2.05;82.69;102154.88;5126154;27;20937;-57
2023/03/28 00:53:04;;;;;;;19.80;5.07;;;;;;;2.15;82.45;102151.88;5131617;28;20043;-58
2023/03/28 00:55:39;;;;;;;20.67;4.97;;;;;;;2.05;82.66;102148.78;5128804;28;20040;-57
2023/03/28 00:58:10;;;;;;;18.58;4.65;;;;;;;2.16;82.33;102145.72;5130029;28;20123;-58
2023/03/28 01:00:40;;;;;;;18.42;4.65;;;;;;;2.20;81.51;102158.63;5127428;28;20047;-58
2023/03/28 01:03:07;;;;;;;25.98;4.88;;;;;;;2.23;81.83;102150.63;5130021;28;20122;-56
2023/03/28 01:05:35;;;;;;;16.02;4.43;;;;;;;2.10;82.97;102150.28;5127092;28;20381;-56
2023/03/28 01:08:09;;;;;;;23.23;5.05;;;;;;;1.92;83.25;102153.69;5125876;28;20484;-56
2023/03/28 01:10:36;;;;;;;14.90;4.47;;;;;;;1.90;83.93;102151.13;5130330;27;20400;-56
2023/03/28 01:13:06;;;;;;;18.60;4.93;;;;;;;1.83;83.49;102151.47;5125940;27;20077;-57
2023/03/28 01:15:33;;;;;;;18.02;4.95;;;;;;;1.78;83.84;102156.88;5131593;27;20436;-56
2023/03/28 01:18:02;;;;;;;18.38;4.40;;;;;;;1.71;84.71;102155.41;5125155;28;20043;-56
2023/03/28 01:26:34;;;;;;;24.10;4.55;;;;;;;1.79;85.29;102148.13;5109842;27;20370;-56
2023/03/28 01:29:33;;;;;;;16.83;4.63;;;;;;;1.73;85.61;102143.16;5105021;28;20043;-57
2023/03/28 01:32:20;;;;;;;23.15;4.68;;;;;;;1.79;85.08;102134.19;5110631;28;20413;-56
2023/03/28 01:35:15;;;;;;;18.15;4.85;;;;;;;1.82;84.74;102142.75;5108192;28;20044;-57
2023/03/28 01:38:14;;;;;;;21.13;4.70;;;;;;;1.87;84.36;102139.94;5105805;28;20085;-56
2023/03/28 01:41:06;;;;;;;18.90;4.70;;;;;;;1.86;84.03;102141.72;5109826;28;20093;-56
2023/03/28 01:44:07;;;;;;;25.00;5.05;;;;;;;1.83;84.50;102133.97;5105489;28;20040;-56
2023/03/28 01:46:38;;;;;;;16.67;4.97;;;;;;;1.85;84.67;102128.69;5109568;28;20047;-56
2023/03/28 01:49:17;;;;;;;25.77;5.28;;;;;;;1.91;84.32;102126.69;5104660;28;20572;-57
2023/03/28 01:51:56;;;;;;;19.98;4.32;;;;;;;1.95;83.81;102131.75;5109685;28;20048;-56
2023/03/28 01:54:34;;;;;;;18.23;4.40;;;;;;;1.86;84.47;102125.16;5102266;28;20412;-57
2023/03/28 01:57:24;;;;;;;15.93;4.93;;;;;;;1.86;84.12;102127.78;5109466;28;20047;-56
2023/03/28 02:00:09;;;;;;;20.08;4.50;;;;;;;1.82;83.68;102126.19;5105119;28;20055;-56
2023/03/28 02:03:01;;;;;;;20.00;4.53;;;;;;;1.77;84.22;102125.56;5108862;28;20126;-56
2023/03/28 02:05:35;;;;;;;16.67;4.70;;;;;;;1.71;85.03;102124.00;5104935;28;20125;-56
2023/03/28 02:08:08;;;;;;;20.67;4.45;;;;;;;1.63;85.37;102124.34;5110280;28;20390;-56
2023/03/28 02:10:44;;;;;;;34.90;5.32;;;;;;;1.71;85.75;102124.88;5101365;28;20048;-56
2023/03/28 02:13:35;;;;;;;19.55;4.85;;;;;;;1.64;85.58;102120.81;5108929;28;20493;-56
2023/03/28 02:16:24;;;;;;;21.02;4.75;;;;;;;1.67;85.14;102127.69;5104810;28;20073;-57
2023/03/28 02:19:02;;;;;;;22.27;5.25;;;;;;;1.67;85.12;102120.69;5108537;28;20386;-56
2023/03/28 02:22:01;;;;;;;20.73;5.10;;;;;;;1.71;85.45;102124.88;5103335;28;20516;-56
2023/03/28 02:24:50;;;;;;;20.85;5.30;;;;;;;1.69;84.43;102116.25;5108401;28;20588;-56
2023/03/28 02:27:31;;;;;;;17.15;5.50;;;;;;;1.66;84.40;102115.53;5100488;28;20048;-56
2023/03/28 02:30:09;;;;;;;20.63;5.25;;;;;;;1.58;85.05;102110.59;5109175;28;20123;-56
2023/03/28 02:32:37;;;;;;;27.42;5.13;;;;;;;1.56;84.94;102124.66;5104744;28;20138;-56
2023/03/28 02:35:06;;;;;;;19.35;6.10;;;;;;;1.60;84.93;102123.59;5108984;28;20043;-57
2023/03/28 02:37:55;;;;;;;20.92;5.32;;;;;;;1.56;84.47;102114.19;5090322;28;20070;-57
2023/03/28 02:40:51;;;;;;;23.10;5.53;;;;;;;1.58;84.03;102118.44;5094417;28;20044;-56
2023/03/28 02:43:48;;;;;;;23.45;5.35;;;;;;;1.62;84.14;102114.78;5085941;28;20526;-56
2023/03/28 02:49:29;;;;;;;25.38;5.65;;;;;;;1.53;85.14;102116.00;5105220;27;21144;-57
2023/03/28 02:52:09;;;;;;;17.48;4.55;;;;;;;1.49;84.97;102119.69;5110526;28;20048;-57
2023/03/28 02:54:50;;;;;;;28.83;5.25;;;;;;;1.43;84.94;102116.44;5105686;28;20048;-58
2023/03/28 02:57:44;;;;;;;25.15;4.78;;;;;;;1.41;85.16;102115.66;5110296;28;20118;-57
2023/03/28 03:00:17;;;;;;;21.55;4.75;;;;;;;1.32;85.30;102112.47;5102319;28;20679;-57
2023/03/28 03:02:48;;;;;;;18.60;4.65;;;;;;;1.40;85.23;102116.56;5109008;28;20136;-57
2023/03/28 03:05:15;;;;;;;24.83;4.88;;;;;;;1.41;85.04;102108.66;5109024;28;20044;-58
2023/03/28 03:07:41;;;;;;;24.10;4.80;;;;;;;1.35;85.25;102122.00;5107531;28;20090;-57
2023/03/28 03:10:10;;;;;;;26.45;4.57;;;;;;;1.28;85.17;102110.91;5131213;27;20499;-57
2023/03/28 03:12:37;;;;;;;29.60;4.93;;;;;;;1.31;85.54;102121.25;5111420;27;20139;-57
2023/03/28 03:15:04;;;;;;;27.38;5.28;;;;;;;1.30;85.65;102123.94;5113955;27;20451;-57
2023/03/28 03:17:51;;;;;;;22.40;5.15;;;;;;;1.29;85.42;102119.59;5103105;28;20044;-57
2023/03/28 03:20:25;;;;;;;;;;;;;;;1.27;85.24;102124.88;5110056;28;20051;-58
2023/03/28 03:22:54;;;;;;;22.05;4.35;;;;;;;1.27;85.42;102118.81;5104658;28;19927;-57
2023/03/28 03:25:21;;;;;;;25.95;5.10;;;;;;;1.25;85.36;102118.03;5110326;28;20043;-57
2023/03/28 03:27:54;;;;;;;20.05;5.15;;;;;;;1.26;85.48;102123.19;5105127;28;20251;-57
2023/03/28 03:30:21;;;;;;;21.80;5.40;;;;;;;1.15;85.79;102128.84;5109023;28;20134;-57
2023/03/28 03:33:09;;;;;;;36.83;5.53;;;;;;;1.12;85.98;102120.25;5101412;28;20493;-57
2023/03/28 03:35:36;;;;;;;22.17;5.32;;;;;;;1.16;86.32;102132.28;5089369;28;20039;-57
2023/03/28 03:38:05;;;;;;;22.67;5.85;;;;;;;1.15;86.47;102133.22;5087148;28;20037;-57
2023/03/28 03:40:32;;;;;;;24.48;6.93;;;;;;;1.03;86.52;102131.06;5084650;28;20063;-57
2023/03/28 03:42:59;;;;;;;32.55;6.53;;;;;;;0.99;86.82;102138.19;5089980;28;20114;-57
2023/03/28 03:45:27;;;;;;;23.48;7.07;;;;;;;0.85;87.16;102149.13;5103822;28;20051;-57
2023/03/28 03:47:53;;;;;;;28.90;7.47;;;;;;;0.82;87.75;102141.44;5108476;28;20515;-57
2023/03/28 03:50:21;;;;;;;29.60;6.65;;;;;;;0.79;88.74;102148.53;5101388;28;20643;-57
2023/03/28 03:52:47;;;;;;;21.73;6.75;;;;;;;0.88;87.77;102141.19;5109595;28;20043;-57
2023/03/28 03:55:14;;;;;;;27.15;7.30;;;;;;;0.92;87.91;102141.94;5105176;28;20082;-57
2023/03/28 03:57:42;;;;;;;25.42;7.53;;;;;;;0.88;88.26;102143.81;5109446;28;20051;-57
2023/03/28 04:00:10;;;;;;;30.63;7.40;;;;;;;0.85;88.27;102146.50;5092501;28;20052;-57
2023/03/28 04:02:52;;;;;;;32.10;7.30;;;;;;;1.01;87.95;102148.56;5095631;28;20094;-57
2023/03/28 04:05:23;;;;;;;25.48;7.22;;;;;;;0.94;87.83;102155.78;5090453;28;20048;-58
2023/03/28 04:08:08;;;;;;;27.27;7.13;;;;;;;0.87;87.76;102149.06;5092592;28;20127;-57
2023/03/28 04:10:38;;;;;;;27.40;7.63;;;;;;;0.88;88.08;102150.78;5096223;28;20111;-57
2023/03/28 04:13:04;;;;;;;27.67;7.60;;;;;;;0.94;88.09;102146.16;5090967;28;20134;-57
2023/03/28 04:15:33;;;;;;;28.98;7.00;;;;;;;0.91;87.33;102143.69;5094883;28;20094;-57
2023/03/28 04:18:19;;;;;;;25.10;7.22;;;;;;;0.95;87.98;102152.28;5089994;28;20044;-57
2023/03/28 04:20:53;;;;;;;27.50;7.90;;;;;;;1.05;87.56;102144.94;5093756;28;20048;-57
2023/03/28 04:23:37;;;;;;;25.20;8.55;;;;;;;0.97;87.18;102153.06;5088390;28;20048;-57
2023/03/28 04:26:07;;;;;;;24.83;8.60;;;;;;;0.97;87.71;102147.84;5094817;28;20093;-57
2023/03/28 04:28:46;;;;;;;40.08;8.27;;;;;;;0.92;87.93;102145.38;5090411;28;20401;-57
2023/03/28 04:31:13;;;;;;;27.42;8.75;;;;;;;0.99;87.55;102145.16;5095560;28;20048;-57
2023/03/28 04:34:04;;;;;;;23.10;8.43;;;;;;;0.94;87.79;102143.56;5090310;28;20044;-58
2023/03/28 04:36:36;;;;;;;36.42;10.25;;;;;;;0.99;87.23;102145.16;5094032;28;20040;-58
2023/03/28 04:39:03;;;;;;;31.20;9.43;;;;;;;0.90;87.91;102156.81;5086952;28;20550;-56
2023/03/28 04:41:54;;;;;;;32.53;9.45;;;;;;;0.83;87.98;102158.78;5094832;28;20048;-56
2023/03/28 04:44:28;;;;;;;30.77;10.02;;;;;;;0.98;87.90;102152.13;5090270;28;20044;-56
2023/03/28 04:47:01;;;;;;;32.38;9.25;;;;;;;0.87;88.29;102155.16;5094519;28;20131;-56
2023/03/28 04:49:27;;;;;;;38.97;10.48;;;;;;;1.00;87.62;102149.47;5089194;28;20063;-58
2023/03/28 04:51:54;;;;;;;33.08;9.90;;;;;;;0.94;87.29;102146.16;5094638;28;20040;-56
2023/03/28 04:54:21;;;;;;;34.80;9.95;;;;;;;0.90;87.69;102155.03;5086245;28;20060;-58
2023/03/28 04:57:06;;;;;;;28.45;9.50;;;;;;;0.92;87.93;102149.75;5093890;28;20087;-56
2023/03/28 04:59:40;;;;;;;29.27;9.60;;;;;;;0.95;87.49;102155.72;5090363;28;20127;-56
2023/03/28 05:02:08;;;;;;;29.58;9.85;;;;;;;0.99;87.57;102160.84;5094456;28;20031;-57
2023/03/28 05:04:41;;;;;;;34.08;9.73;;;;;;;0.96;87.82;102159.19;5089472;28;20048;-57
2023/03/28 05:07:08;;;;;;;28.67;10.00;;;;;;;0.95;87.83;102168.78;5093198;28;20042;-57
2023/03/28 05:09:36;;;;;;;37.30;10.68;;;;;;;1.04;87.25;102161.53;5082191;28;20485;-57
2023/03/28 05:12:03;;;;;;;24.90;9.52;;;;;;;1.02;87.04;102166.81;5082204;28;20047;-57
2023/03/28 05:14:33;;;;;;;33.40;10.43;;;;;;;1.08;86.95;102169.19;5093469;28;20048;-57
2023/03/28 05:17:16;;;;;;;34.60;10.35;;;;;;;1.12;86.22;102173.38;5089373;28;20047;-57
2023/03/28 05:19:54;;;;;;;29.15;9.57;;;;;;;1.05;87.40;102174.53;5093385;28;20083;-57
2023/03/28 05:22:23;;;;;;;33.47;9.18;;;;;;;1.09;86.76;102170.91;5088769;28;20052;-56
2023/03/28 05:24:50;;;;;;;36.42;10.35;;;;;;;1.10;86.23;102164.75;5093054;28;20048;-57
2023/03/28 05:27:19;;;;;;;27.67;9.40;;;;;;;1.13;86.78;102177.72;5083226;28;20075;-57
2023/03/28 05:29:46;;;;;;;29.90;9.25;;;;;;;1.10;86.25;102174.38;5092493;28;20444;-57
2023/03/28 05:32:14;;;;;;;33.90;9.52;;;;;;;1.07;86.64;102182.31;5090096;28;20078;-57
2023/03/28 05:34:41;;;;;;;34.97;9.95;;;;;;;0.97;87.98;102183.56;5088856;28;20040;-57
2023/03/28 05:37:09;;;;;;;31.73;9.30;;;;;;;1.04;88.01;102179.84;5088724;28;20146;-57
2023/03/28 05:39:46;;;;;;;29.10;9.50;;;;;;;1.11;86.77;102181.28;5092926;28;20142;-56
2023/03/28 05:42:13;;;;;;;30.75;9.50;;;;;;;1.12;86.88;102185.59;5085501;28;20055;-56
2023/03/28 05:44:39;;;;;;;35.92;10.80;;;;;;;1.15;87.23;102183.72;5093586;28;20074;-57
2023/03/28 05:47:26;;;;;;;34.67;9.70;;;;;;;1.13;87.18;102182.09;5088184;28;20062;-56
2023/03/28 05:49:53;;;;;;;33.65;9.52;;;;;;;1.14;87.85;102189.00;5067387;28;20064;-57
2023/03/28 05:52:20;;;;;;;33.30;9.40;;;;;;;1.05;88.41;102186.75;5073487;28;20135;-58
2023/03/28 05:54:47;;;;;;;32.17;10.00;;;;;;;1.21;87.54;102174.81;5068219;28;20136;-58
2023/03/28 05:57:16;;;;;;;29.63;10.07;;;;;;;1.22;87.65;102173.91;5071956;28;20378;-57
2023/03/28 05:59:43;;;;;;;28.60;9.63;;;;;;;1.32;87.41;102180.47;5064604;28;20135;-58
2023/03/28 06:02:14;;;;;;;41.20;9.98;;;;;;;1.34;87.17;102178.63;5072547;28;20102;-58
2023/03/28 06:04:43;;;;;;;32.38;9.23;;;;;;;1.43;87.03;102184.44;5068602;28;20392;-57
2023/03/28 06:07:12;;;;;;;39.20;9.25;;;;;;;1.42;86.91;102170.53;5073004;28;20056;-58
2023/03/28 06:09:40;;;;;;;37.65;9.23;;;;;;;1.52;87.21;102187.53;5086777;28;20474;-57
2023/03/28 06:12:08;;;;;;;27.38;8.85;;;;;;;1.50;86.79;102186.75;5093024;28;20044;-57
2023/03/28 06:14:40;;;;;;;33.90;9.68;;;;;;;1.59;86.42;102201.25;5088805;28;20044;-57
2023/03/28 06:17:12;;;;;;;30.27;9.40;;;;;;;1.64;86.20;102201.91;5089528;28;20114;-57
2023/03/28 06:19:46;;;;;;;24.95;9.65;;;;;;;1.60;86.65;102208.19;5092647;28;20045;-57
2023/03/28 06:22:13;;;;;;;32.60;8.98;;;;;;;1.56;86.18;102200.50;5088812;28;20074;-57
2023/03/28 06:24:43;;;;;;;28.38;9.07;;;;;;;1.61;86.40;102207.25;5112801;28;20055;-57
2023/03/28 06:27:10;;;;;;;44.00;10.05;;;;;;;1.75;85.81;102208.47;5108149;28;20401;-57
2023/03/28 06:29:38;;;;;;;38.55;9.70;;;;;;;1.69;85.55;102205.22;5113733;28;20058;-57
2023/03/28 06:32:05;;;;;;;33.63;9.98;;;;;;;1.79;85.75;102215.31;5104526;28;20055;-57
2023/03/28 06:34:32;;;;;;;35.83;9.10;;;;;;;1.73;85.30;102213.78;5097311;28;20435;-57
2023/03/28 06:37:01;;;;;;;32.15;9.48;;;;;;;1.73;85.15;102222.47;5088163;28;20052;-57
2023/03/28 06:39:43;;;;;;;37.65;9.65;;;;;;;1.72;86.14;102212.91;5090866;28;20063;-56
2023/03/28 06:42:10;;;;;;;40.05;10.00;;;;;;;1.80;86.55;102222.22;5087818;28;20040;-57
2023/03/28 06:44:47;;;;;;;38.55;9.50;;;;;;;1.74;86.49;102218.09;5093091;28;20123;-57
2023/03/28 06:47:25;;;;;;;36.47;11.10;;;;;;;1.83;86.51;102227.34;5084095;28;20075;-56
2023/03/28 06:49:52;;;;;;;34.20;9.93;;;;;;;1.96;86.53;102223.31;5092271;28;20047;-56
2023/03/28 06:52:38;;;;;;;37.20;10.07;;;;;;;1.91;86.14;102220.91;5088442;28;20485;-57
2023/03/28 06:55:08;;;;;;;26.30;9.23;;;;;;;1.98;85.68;102218.03;5092521;28;20390;-57
2023/03/28 06:57:35;;;;;;;32.42;10.18;;;;;;;2.02;85.78;102220.47;5088602;28;20137;-57
2023/03/28 07:00:22;;;;;;;31.55;9.85;;;;;;;2.10;85.53;102226.22;5092052;28;20447;-57
2023/03/28 07:03:10;;;;;;;31.73;9.05;;;;;;;2.20;85.30;102223.22;5087168;28;20443;-57
2023/03/28 07:05:38;;;;;;;33.97;9.95;;;;;;;2.26;85.75;102223.81;5087398;28;20055;-57
2023/03/28 07:08:07;;;;;;;37.50;9.45;;;;;;;2.34;84.78;102220.03;5092254;28;20135;-57
2023/03/28 07:10:35;;;;;;;33.67;9.18;;;;;;;2.29;84.54;102228.94;5087505;28;20054;-57
2023/03/28 07:13:02;;;;;;;44.35;9.70;;;;;;;2.36;83.75;102216.44;5092728;28;20048;-57
2023/03/28 07:15:29;;;;;;;29.55;10.77;;;;;;;2.51;82.22;102220.19;5086759;28;20063;-57
2023/03/28 07:17:56;;;;;;;37.42;9.30;;;;;;;2.36;82.92;102226.06;5092522;28;20409;-55
2023/03/28 07:20:24;;;;;;;32.50;9.85;;;;;;;2.47;83.45;102229.06;5083506;28;20044;-54
2023/03/28 07:22:52;;;;;;;35.25;11.35;;;;;;;2.58;82.53;102224.22;5092119;28;20494;-54
2023/03/28 07:25:19;;;;;;;42.22;10.30;;;;;;;2.48;82.46;102226.41;5088372;28;20048;-55
2023/03/28 07:27:46;;;;;;;28.08;10.45;;;;;;;2.72;82.02;102226.25;5098213;28;20495;-57
2023/03/28 07:30:13;;;;;;;39.13;10.35;;;;;;;2.83;80.90;102231.88;5092947;28;20257;-57
2023/03/28 07:32:40;;;;;;;31.98;10.07;;;;;;;2.87;80.79;102240.44;5100946;28;20409;-57
2023/03/28 07:35:17;;;;;;;28.83;9.73;;;;;;;2.96;81.33;102236.59;5110561;28;20062;-57
2023/03/28 07:37:47;;;;;;;31.25;9.65;;;;;;;2.90;81.85;102234.25;5095719;28;20049;-58
2023/03/28 07:40:25;;;;;;;36.72;10.35;;;;;;;2.94;82.14;102234.03;5088081;27;20060;-57
2023/03/28 07:42:52;;;;;;;32.72;10.48;;;;;;;3.07;82.38;102242.19;5102386;28;20037;-56
2023/03/28 07:45:19;;;;;;;29.58;10.02;;;;;;;3.05;80.72;102238.78;5093435;28;20043;-56
2023/03/28 07:47:46;;;;;;;35.30;10.23;;;;;;;3.27;80.46;102241.28;5111658;28;20557;-58
2023/03/28 07:50:13;;;;;;;32.97;11.15;;;;;;;3.33;80.80;102241.03;5115103;28;20378;-58
2023/03/28 07:52:44;;;;;;;34.75;10.60;;;;;;;3.38;79.63;102246.03;5073432;28;20069;-56
2023/03/28 07:55:12;;;;;;;34.03;11.05;;;;;;;3.24;80.03;102241.44;5090890;28;20428;-56
2023/03/28 07:57:44;;;;;;;38.20;10.77;;;;;;;3.47;80.13;102250.88;5091851;28;20121;-56
2023/03/28 08:00:22;;;;;;;31.20;10.45;;;;;;;3.29;80.44;102243.84;5090585;28;20046;-57
2023/03/28 08:03:09;;;;;;;33.22;10.35;;;;;;;3.53;80.04;102254.97;5091972;28;20496;-57
2023/03/28 08:05:36;;;;;;;35.08;9.57;;;;;;;3.73;77.64;102264.53;5098667;28;20139;-57
2023/03/28 08:08:05;;;;;;;35.45;11.85;;;;;;;3.48;77.34;102260.44;5113301;28;20059;-57
2023/03/28 08:10:32;;;;;;;35.35;11.48;;;;;;;3.36;79.10;102263.63;5078908;28;20138;-56
2023/03/28 08:12:59;;;;;;;30.98;10.73;;;;;;;3.43;78.71;102265.91;5109411;28;20052;-58
2023/03/28 08:15:26;;;;;;;27.42;9.30;;;;;;;3.53;78.06;102266.34;5077873;28;20068;-56
2023/03/28 08:17:53;;;;;;;36.83;10.00;;;;;;;3.69;78.89;102269.09;5095445;27;20051;-57
2023/03/28 08:20:20;;;;;;;27.60;9.57;;;;;;;3.79;78.29;102264.28;5094674;28;20048;-57
2023/03/28 08:22:58;;;;;;;27.73;9.32;;;;;;;3.97;77.38;102265.16;5103777;28;20047;-57
2023/03/28 08:25:43;;;;;;;38.65;9.55;;;;;;;4.08;77.69;102268.13;5092500;28;20043;-56
2023/03/28 08:28:12;;;;;;;35.53;10.85;;;;;;;4.22;77.79;102260.41;5085661;28;20119;-57
2023/03/28 08:30:39;;;;;;;28.60;9.18;;;;;;;4.37;75.12;102273.72;5088266;28;20059;-56
2023/03/28 08:33:08;;;;;;;26.35;9.35;;;;;;;4.51;75.70;102260.75;5091648;28;20047;-57
2023/03/28 08:35:36;;;;;;;30.73;9.63;;;;;;;4.90;74.50;102264.03;5091349;28;20044;-57
2023/03/28 08:38:12;;;;;;;34.65;9.05;;;;;;;4.98;74.32;102267.97;5105132;28;20527;-58
2023/03/28 08:40:46;;;;;;;21.90;8.20;;;;;;;5.22;73.43;102261.47;5098840;28;20101;-57
2023/03/28 08:43:57;;;;;;;27.08;7.28;;;;;;;5.43;70.86;102270.84;5084922;28;20048;-57
2023/03/28 08:46:26;;;;;;;29.88;8.50;;;;;;;5.38;71.33;102272.88;5088907;28;20659;-57
2023/03/28 08:48:54;;;;;;;23.23;8.73;;;;;;;5.53;70.86;102273.81;5099725;28;20077;-56
2023/03/28 08:51:46;;;;;;;28.95;7.97;;;;;;;5.75;71.18;102265.59;5099217;28;20044;-57
2023/03/28 08:54:32;;;;;;;;;;;;;;;6.06;68.47;102270.03;5102297;28;20047;-56
2023/03/28 08:57:04;;;;;;;23.45;6.25;;;;;;;6.08;67.04;102259.41;5080389;28;19927;-57
2023/03/28 08:59:58;;;;;;;27.98;5.97;;;;;;;6.41;63.96;102256.59;5088485;28;20041;-57
2023/03/28 09:02:28;;;;;;;38.20;6.28;;;;;;;6.12;64.53;102256.50;5098733;28;20048;-56
2023/03/28 09:04:57;;;;;;;22.73;6.25;;;;;;;6.10;64.89;102257.53;5104190;28;20488;-56
2023/03/28 09:07:40;;;;;;;25.20;4.75;;;;;;;6.26;62.79;102263.63;5097256;28;20113;-56
2023/03/28 09:13:15;;;;;;;19.08;3.42;;;;;;;6.09;58.13;102261.09;5134613;27;20545;-57
2023/03/28 09:16:13;;;;;;;21.67;4.07;;;;;;;6.36;57.96;102249.91;5110477;28;20055;-58
2023/03/28 09:19:05;;;;;;;19.45;3.75;;;;;;;6.71;57.75;102248.66;5113075;28;20052;-57
2023/03/28 09:22:02;;;;;;;17.88;4.00;;;;;;;7.08;57.16;102242.94;5113609;28;20040;-58
2023/03/28 09:27:54;;;;;;;23.88;4.43;;;;;;;8.08;53.56;102236.59;5080627;27;20141;-59
2023/03/28 09:30:25;;;;;;;14.77;3.10;;;;;;;8.93;51.97;102239.69;5088796;28;20048;-57
2023/03/28 09:32:57;;;;;;;22.30;3.85;;;;;;;9.90;49.93;102226.63;5084646;28;20040;-58
2023/03/28 09:35:27;;;;;;;16.30;3.33;;;;;;;11.18;44.52;102231.00;5085471;28;20044;-59
2023/03/28 09:38:01;;;;;;;18.88;3.05;;;;;;;12.17;40.64;102233.66;5080558;28;20036;-58
2023/03/28 09:40:31;;;;;;;21.20;3.30;;;;;;;12.52;36.62;102224.56;5083407;28;20045;-58
2023/03/28 09:43:32;;;;;;;21.58;2.72;;;;;;;11.37;39.04;102234.84;5085083;28;20044;-58
2023/03/28 09:46:17;;;;;;;15.18;3.03;;;;;;;11.19;40.03;102230.03;5082131;28;20390;-58
2023/03/28 09:48:56;;;;;;;15.18;3.33;;;;;;;11.85;38.76;102229.19;5075678;28;20044;-57
2023/03/28 09:51:26;;;;;;;22.17;2.92;;;;;;;11.37;38.06;102226.88;5084461;28;20045;-58
2023/03/28 09:53:53;;;;;;;15.80;3.65;;;;;;;11.73;37.42;102228.34;5061224;28;20569;-58
2023/03/28 09:56:28;;;;;;;12.57;2.70;;;;;;;11.85;37.45;102230.03;5076676;28;20072;-58
2023/03/28 09:59:25;;;;;;;11.55;2.88;;;;;;;11.10;37.44;102220.16;5064296;28;20062;-57
2023/03/28 10:01:55;;;;;;;14.35;3.17;;;;;;;12.24;36.69;102221.53;5082898;28;20558;-57
2023/03/28 10:04:36;;;;;;;15.00;3.30;;;;;;;12.58;37.29;102216.03;5074657;28;20044;-58
2023/03/28 10:07:29;;;;;;;18.52;3.20;;;;;;;12.51;35.96;102213.03;5086522;28;20401;-58
2023/03/28 10:10:20;;;;;;;20.63;3.60;;;;;;;11.35;38.22;102213.72;5080617;28;20501;-58
2023/03/28 10:12:57;;;;;;;15.60;3.05;;;;;;;11.10;39.44;102206.88;5071959;28;20705;-58
2023/03/28 10:15:33;;;;;;;15.77;3.08;;;;;;;11.75;39.54;102204.31;5083294;28;20574;-58
2023/03/28 10:18:23;;;;;;;15.88;3.25;;;;;;;12.53;38.56;102215.56;5080288;28;20072;-58
2023/03/28 10:21:12;;;;;;;15.90;3.17;;;;;;;11.68;38.92;102209.31;5088821;28;20052;-58
2023/03/28 10:23:44;;;;;;;18.33;3.85;;;;;;;10.84;40.10;102195.63;5075969;28;20135;-58
2023/03/28 10:26:20;;;;;;;12.27;2.80;;;;;;;10.80;39.76;102197.69;5068825;28;20399;-57
2023/03/28 10:28:53;;;;;;;10.30;2.30;;;;;;;10.84;37.60;102193.84;5051057;28;20048;-58
2023/03/28 10:31:30;;;;;;;15.35;2.60;;;;;;;10.31;40.08;102197.00;5054276;28;20055;-58
2023/03/28 10:34:27;;;;;;;14.55;2.53;;;;;;;9.01;40.34;102199.44;5063440;28;20048;-58
2023/03/28 10:37:00;;;;;;;12.00;2.50;;;;;;;8.54;41.24;102190.38;5058231;28;20056;-57
2023/03/28 10:39:57;;;;;;;13.07;2.55;;;;;;;8.96;42.11;102188.31;5049761;28;20052;-58
2023/03/28 10:42:48;;;;;;;12.75;2.70;;;;;;;9.09;40.06;102186.50;5036190;28;20052;-58
2023/03/28 10:45:38;;;;;;;12.07;3.25;;;;;;;8.87;42.04;102173.94;5050537;28;20053;-58
2023/03/28 10:48:12;;;;;;;;;;;;;;;9.13;40.92;102179.19;5051299;28;20124;-57
2023/03/28 10:50:44;;;;;;;12.73;2.55;;;;;;;9.65;40.99;102169.28;5051369;28;19971;-57
2023/03/28 10:58:56;;;;;;;14.55;2.42;;;;;;;9.22;41.90;102152.03;5079181;27;20393;-57
2023/03/28 11:01:42;;;;;;;12.70;2.42;;;;;;;9.66;40.74;102163.00;5076414;28;20037;-57
2023/03/28 11:04:50;;;;;;;9.27;2.10;;;;;;;9.18;40.78;102162.00;5065292;28;20048;-57
2023/03/28 11:07:47;;;;;;;10.82;2.70;;;;;;;9.27;42.03;102154.38;5082079;28;20079;-57
2023/03/28 11:11:06;;;;;;;12.50;2.63;;;;;;;8.81;41.74;102148.75;5089707;28;20052;-57
2023/03/28 11:16:46;;;;;;;11.23;2.20;;;;;;;9.63;40.66;102120.84;5116295;27;20411;-56
2023/03/28 11:19:51;;;;;;;;;;;;;;;10.02;40.74;102129.41;5111072;28;20039;-56
2023/03/28 11:22:35;;;;;;;14.85;2.42;;;;;;;9.60;39.94;102116.59;5099731;28;19920;-57
2023/03/28 11:25:19;;;;;;;8.05;2.03;;;;;;;9.67;40.05;102111.72;5110881;27;20039;-56
2023/03/28 11:28:18;;;;;;;10.38;2.50;;;;;;;9.21;39.07;102114.13;5093903;28;20120;-56
2023/03/28 11:30:55;;;;;;;8.98;2.38;;;;;;;9.49;38.84;102101.50;5108456;28;20078;-58
2023/03/28 11:33:58;;;;;;;8.43;2.00;;;;;;;9.30;38.69;102094.09;5116936;28;20059;-58
2023/03/28 11:36:49;;;;;;;8.35;1.90;;;;;;;9.67;40.63;102096.66;5102479;28;20052;-57
2023/03/28 11:39:41;;;;;;;11.00;2.40;;;;;;;9.95;39.23;102100.72;5104771;28;20252;-57
2023/03/28 11:42:19;;;;;;;9.10;1.90;;;;;;;9.56;39.41;102083.38;5101126;28;20048;-57
2023/03/28 11:44:57;;;;;;;11.02;2.30;;;;;;;9.83;41.59;102079.59;5095096;27;20047;-57
2023/03/28 11:47:31;;;;;;;9.35;2.25;;;;;;;10.10;41.30;102066.03;5102119;28;20484;-57
2023/03/28 11:50:17;;;;;;;7.72;2.00;;;;;;;9.56;40.63;102078.06;5116988;28;20408;-57
2023/03/28 11:53:11;;;;;;;9.13;2.17;;;;;;;9.80;39.14;102067.41;5107755;28;20403;-57
2023/03/28 11:55:50;;;;;;;11.65;2.40;;;;;;;10.15;39.52;102066.50;5100390;28;20492;-57
2023/03/28 11:58:42;;;;;;;9.82;2.35;;;;;;;10.58;39.57;102071.13;5109427;28;20047;-57
2023/03/28 12:01:15;;;;;;;9.35;2.28;;;;;;;10.95;37.51;102066.41;5097018;28;20035;-57
2023/03/28 12:04:00;;;;;;;8.25;2.10;;;;;;;10.63;36.98;102068.97;5107271;28;20062;-57
2023/03/28 12:06:36;;;;;;;8.82;2.10;;;;;;;11.17;37.47;102063.78;5101393;28;20059;-58
2023/03/28 12:12:15;;;;;;;6.50;2.00;;;;;;;13.23;33.54;102059.41;5105991;27;20399;-56
2023/03/28 12:15:11;;;;;;;8.95;2.20;;;;;;;14.01;30.29;102062.84;5049227;28;20401;-52
2023/03/28 12:17:58;;;;;;;5.35;1.92;;;;;;;14.02;30.63;102058.34;5077762;28;20056;-52
2023/03/28 12:20:35;;;;;;;7.95;2.15;;;;;;;14.26;29.75;102041.00;5071555;28;20505;-53
2023/03/28 12:23:17;;;;;;;7.95;2.75;;;;;;;16.05;28.22;102045.63;5077971;28;20127;-52
2023/03/28 12:26:43;;;;;;;6.72;2.17;;;;;;;16.80;26.21;102047.59;5069791;28;21586;-52
2023/03/28 12:29:20;;;;;;;8.77;2.28;;;;;;;17.26;24.88;102032.81;5053877;28;20072;-52
2023/03/28 12:31:55;;;;;;;6.60;2.20;;;;;;;18.34;23.24;102028.94;5072862;28;20067;-53
2023/03/28 12:34:46;;;;;;;10.27;2.40;;;;;;;17.26;24.27;102015.84;5077210;28;20073;-52